createdAt,value
2018-08-06T00:00:47.429Z,74.71
2018-08-06T00:01:55.492Z,74.90
2018-08-06T00:03:03.583Z,75.05
2018-08-06T00:04:11.651Z,75.24
2018-08-06T00:05:19.713Z,74.57
2018-08-06T00:06:27.785Z,74.76
2018-08-06T00:07:35.854Z,74.67
2018-08-06T00:08:43.948Z,74.76
2018-08-06T00:09:52.225Z,74.96
2018-08-06T00:11:00.550Z,74.96
2018-08-06T00:12:08.575Z,74.48
2018-08-06T00:13:16.665Z,75.05
2018-08-06T00:14:24.711Z,75.63
2018-08-06T00:15:33.086Z,74.76
2018-08-06T00:16:40.858Z,74.19
2018-08-06T00:17:48.946Z,74.38
2018-08-06T00:18:57.119Z,74.86
2018-08-06T00:20:05.066Z,74.48
2018-08-06T00:21:13.154Z,74.29
2018-08-06T00:22:21.215Z,74.29
2018-08-06T00:23:29.385Z,74.86
2018-08-06T00:24:37.366Z,74.76
2018-08-06T00:25:45.715Z,74.19
2018-08-06T00:26:53.505Z,72.74
2018-08-06T00:28:04.984Z,73.90
2018-08-06T00:29:09.670Z,73.51
2018-08-06T00:30:17.740Z,73.90
2018-08-06T00:31:25.973Z,73.22
2018-08-06T00:32:33.883Z,73.13
2018-08-06T00:33:41.936Z,73.13
2018-08-06T00:34:50.052Z,72.74
2018-08-06T00:35:58.258Z,72.94
2018-08-06T00:37:06.171Z,72.84
2018-08-06T00:38:14.217Z,72.84
2018-08-06T00:39:22.314Z,73.03
2018-08-06T00:40:30.360Z,72.55
2018-08-06T00:41:38.440Z,73.13
2018-08-06T00:42:46.520Z,73.13
2018-08-06T00:43:54.576Z,72.26
2018-08-06T00:45:02.667Z,71.88
2018-08-06T00:46:10.735Z,72.17
2018-08-06T00:47:18.789Z,71.69
2018-08-06T00:48:26.869Z,72.01
2018-08-06T00:49:35.046Z,71.91
2018-08-06T00:50:43.017Z,71.53
2018-08-06T00:51:51.196Z,71.81
2018-08-06T00:52:59.459Z,72.11
2018-08-06T00:54:07.433Z,72.20
2018-08-06T00:55:15.470Z,71.81
2018-08-06T00:56:23.675Z,71.91
2018-08-06T00:57:31.844Z,71.91
2018-08-06T00:58:43.312Z,72.59
2018-08-06T00:59:47.996Z,71.69
2018-08-06T01:00:56.352Z,72.59
2018-08-06T01:02:04.146Z,72.17
2018-08-06T01:03:12.248Z,72.01
2018-08-06T01:04:20.278Z,72.39
2018-08-06T01:05:28.378Z,71.34
2018-08-06T01:06:36.432Z,72.30
2018-08-06T01:07:44.518Z,72.39
2018-08-06T01:08:52.570Z,71.62
2018-08-06T01:10:00.646Z,72.36
2018-08-06T01:11:08.704Z,71.81
2018-08-06T01:12:16.776Z,72.17
2018-08-06T01:13:24.869Z,71.91
2018-08-06T01:14:33.128Z,71.69
2018-08-06T01:15:40.998Z,72.36
2018-08-06T01:16:49.073Z,71.78
2018-08-06T01:17:58.583Z,71.97
2018-08-06T01:19:05.287Z,71.78
2018-08-06T01:20:13.313Z,71.88
2018-08-06T01:21:21.379Z,71.59
2018-08-06T01:22:29.454Z,70.92
2018-08-06T01:23:37.516Z,71.20
2018-08-06T01:24:45.674Z,71.11
2018-08-06T01:25:53.640Z,71.14
2018-08-06T01:27:01.751Z,71.40
2018-08-06T01:28:09.776Z,70.72
2018-08-06T01:29:17.865Z,70.37
2018-08-06T01:30:26.247Z,71.14
2018-08-06T01:31:34.003Z,71.59
2018-08-06T01:32:42.113Z,71.59
2018-08-06T01:33:50.158Z,70.82
2018-08-06T01:34:58.596Z,71.49
2018-08-06T01:36:06.294Z,71.01
2018-08-06T01:37:14.787Z,71.01
2018-08-06T01:38:22.452Z,71.11
2018-08-06T01:39:32.016Z,71.59
2018-08-06T01:40:38.581Z,71.40
2018-08-06T01:41:46.882Z,70.43
2018-08-06T01:42:54.927Z,70.53
2018-08-06T01:44:02.995Z,71.11
2018-08-06T01:45:11.058Z,70.43
2018-08-06T01:46:19.182Z,69.85
2018-08-06T01:47:27.214Z,70.43
2018-08-06T01:48:35.296Z,69.95
2018-08-06T01:49:43.363Z,70.24
2018-08-06T01:50:51.434Z,70.34
2018-08-06T01:51:59.509Z,70.53
2018-08-06T01:53:07.948Z,70.72
2018-08-06T01:54:15.626Z,70.34
2018-08-06T01:55:23.838Z,70.24
2018-08-06T01:56:32.069Z,70.53
2018-08-06T01:57:39.880Z,69.67
2018-08-06T01:58:47.956Z,69.76
2018-08-06T01:59:56.152Z,69.76
2018-08-06T02:01:04.091Z,69.95
2018-08-06T02:02:12.153Z,69.85
2018-08-06T02:03:20.230Z,69.85
2018-08-06T02:04:28.301Z,69.76
2018-08-06T02:05:36.377Z,69.67
2018-08-06T02:06:44.454Z,70.05
2018-08-06T02:07:52.696Z,69.85
2018-08-06T02:09:00.583Z,69.95
2018-08-06T02:10:08.692Z,69.85
2018-08-06T02:11:16.937Z,70.24
2018-08-06T02:12:25.043Z,69.95
2018-08-06T02:13:33.086Z,69.18
2018-08-06T02:14:41.184Z,69.76
2018-08-06T02:15:49.388Z,69.95
2018-08-06T02:16:57.321Z,69.85
2018-08-06T02:18:05.440Z,69.38
2018-08-06T02:19:13.445Z,69.95
2018-08-06T02:20:21.526Z,69.76
2018-08-06T02:21:29.617Z,68.41
2018-08-06T02:22:37.931Z,68.70
2018-08-06T02:23:46.306Z,69.38
2018-08-06T02:24:53.862Z,69.28
2018-08-06T02:26:02.084Z,69.85
2018-08-06T02:27:11.750Z,69.57
2018-08-06T02:28:18.226Z,69.85
2018-08-06T02:29:27.752Z,69.95
2018-08-06T02:30:34.364Z,70.24
2018-08-06T02:31:42.474Z,69.82
2018-08-06T02:32:50.520Z,69.82
2018-08-06T02:33:58.665Z,68.99
2018-08-06T02:35:06.671Z,70.01
2018-08-06T02:36:14.756Z,69.57
2018-08-06T02:37:22.868Z,70.34
2018-08-06T02:38:30.975Z,69.34
2018-08-06T02:39:38.958Z,69.82
2018-08-06T02:40:47.015Z,68.76
2018-08-06T02:41:55.363Z,69.92
2018-08-06T02:43:03.155Z,69.67
2018-08-06T02:44:11.242Z,69.34
2018-08-06T02:45:19.317Z,69.15
2018-08-06T02:46:27.386Z,68.86
2018-08-06T02:47:35.424Z,70.88
2018-08-06T02:48:43.526Z,69.15
2018-08-06T02:49:51.586Z,69.82
2018-08-06T02:51:03.065Z,70.78
2018-08-06T02:52:07.752Z,70.98
2018-08-06T02:53:15.779Z,70.88
2018-08-06T02:54:23.921Z,70.30
2018-08-06T02:55:31.954Z,70.40
2018-08-06T02:56:40.011Z,70.01
2018-08-06T02:57:51.486Z,70.21
2018-08-06T02:58:56.421Z,70.11
2018-08-06T03:00:04.307Z,70.30
2018-08-06T03:01:12.391Z,70.21
2018-08-06T03:02:20.395Z,69.92
2018-08-06T03:03:28.666Z,69.82
2018-08-06T03:04:36.759Z,69.53
2018-08-06T03:05:44.802Z,69.73
2018-08-06T03:06:52.907Z,69.92
2018-08-06T03:08:04.677Z,70.21
2018-08-06T03:09:09.027Z,69.24
2018-08-06T03:10:17.102Z,69.06
2018-08-06T03:11:25.329Z,69.15
2018-08-06T03:12:33.284Z,68.86
2018-08-06T03:13:41.313Z,68.67
2018-08-06T03:14:49.378Z,68.76
2018-08-06T03:15:57.437Z,70.11
2018-08-06T03:17:05.566Z,69.82
2018-08-06T03:18:13.590Z,69.24
2018-08-06T03:19:21.936Z,68.96
2018-08-06T03:20:29.726Z,69.82
2018-08-06T03:21:39.234Z,69.82
2018-08-06T03:22:46.867Z,69.73
2018-08-06T03:23:53.934Z,70.30
2018-08-06T03:25:02.054Z,69.73
2018-08-06T03:26:10.114Z,69.73
2018-08-06T03:27:18.167Z,70.50
2018-08-06T03:28:26.244Z,70.01
2018-08-06T03:29:34.366Z,69.15
2018-08-06T03:30:42.399Z,69.53
2018-08-06T03:31:50.458Z,69.92
2018-08-06T03:33:01.805Z,69.82
2018-08-06T03:34:06.595Z,69.73
2018-08-06T03:35:14.691Z,69.92
2018-08-06T03:36:22.833Z,70.30
2018-08-06T03:37:30.802Z,69.73
2018-08-06T03:38:38.878Z,69.06
2018-08-06T03:39:46.963Z,69.92
2018-08-06T03:40:55.028Z,69.82
2018-08-06T03:42:03.137Z,69.82
2018-08-06T03:43:11.180Z,69.06
2018-08-06T03:44:19.253Z,69.63
2018-08-06T03:45:27.316Z,69.82
2018-08-06T03:46:35.358Z,69.82
2018-08-06T03:47:43.476Z,69.82
2018-08-06T03:48:51.522Z,70.40
2018-08-06T03:49:59.645Z,69.53
2018-08-06T03:51:07.671Z,70.01
2018-08-06T03:52:15.748Z,69.82
2018-08-06T03:53:23.993Z,69.34
2018-08-06T03:54:32.016Z,69.92
2018-08-06T03:55:39.973Z,69.73
2018-08-06T03:56:48.066Z,69.73
2018-08-06T03:57:56.077Z,69.92
2018-08-06T03:59:04.451Z,69.82
2018-08-06T04:00:12.249Z,69.63
2018-08-06T04:01:20.320Z,70.21
2018-08-06T04:02:28.667Z,70.30
2018-08-06T04:03:36.623Z,70.30
2018-08-06T04:04:44.544Z,70.46
2018-08-06T04:05:52.854Z,69.69
2018-08-06T04:07:00.678Z,70.75
2018-08-06T04:08:09.016Z,71.33
2018-08-06T04:09:16.840Z,70.65
2018-08-06T04:10:25.586Z,71.42
2018-08-06T04:11:32.954Z,71.33
2018-08-06T04:12:41.771Z,71.52
2018-08-06T04:13:49.316Z,71.81
2018-08-06T04:14:57.179Z,71.91
2018-08-06T04:16:05.326Z,71.71
2018-08-06T04:17:13.306Z,72.29
2018-08-06T04:18:21.390Z,72.38
2018-08-06T04:19:29.453Z,72.29
2018-08-06T04:20:37.633Z,71.23
2018-08-06T04:21:45.594Z,71.81
2018-08-06T04:22:53.977Z,72.19
2018-08-06T04:24:01.962Z,72.29
2018-08-06T04:25:10.027Z,71.52
2018-08-06T04:26:18.414Z,72.00
2018-08-06T04:27:26.153Z,72.29
2018-08-06T04:28:34.314Z,72.00
2018-08-06T04:29:42.311Z,71.33
2018-08-06T04:30:50.353Z,72.00
2018-08-06T04:33:06.715Z,72.38
2018-08-06T04:34:14.794Z,72.00
2018-08-06T04:35:24.096Z,72.48
2018-08-06T04:36:30.928Z,72.48
2018-08-06T04:37:38.981Z,72.58
2018-08-06T04:38:47.156Z,72.29
2018-08-06T04:39:55.120Z,72.00
2018-08-06T04:41:03.182Z,72.77
2018-08-06T04:42:11.568Z,72.48
2018-08-06T04:43:19.327Z,72.61
2018-08-06T04:44:27.399Z,72.90
2018-08-06T04:45:35.470Z,72.23
2018-08-06T04:46:43.556Z,72.80
2018-08-06T04:47:51.619Z,72.80
2018-08-06T04:49:00.149Z,72.90
2018-08-06T04:50:08.077Z,72.80
2018-08-06T04:51:15.802Z,72.61
2018-08-06T04:52:23.910Z,71.75
2018-08-06T04:53:31.982Z,72.13
2018-08-06T04:54:40.585Z,72.23
2018-08-06T04:55:48.306Z,72.42
2018-08-06T04:56:56.184Z,72.32
2018-08-06T04:58:04.448Z,72.13
2018-08-06T04:59:12.538Z,71.26
2018-08-06T05:00:20.590Z,71.55
2018-08-06T05:01:28.797Z,71.78
2018-08-06T05:02:36.733Z,71.97
2018-08-06T05:03:44.818Z,71.30
2018-08-06T05:04:52.924Z,71.88
2018-08-06T05:06:01.079Z,71.59
2018-08-06T05:07:09.277Z,71.88
2018-08-06T05:08:17.089Z,71.88
2018-08-06T05:09:25.270Z,71.40
2018-08-06T05:10:33.240Z,70.62
2018-08-06T05:11:41.346Z,70.72
2018-08-06T05:12:49.376Z,71.20
2018-08-06T05:13:57.463Z,70.53
2018-08-06T05:15:05.509Z,70.95
2018-08-06T05:16:15.017Z,70.72
2018-08-06T05:17:21.674Z,70.95
2018-08-06T05:18:31.331Z,70.95
2018-08-06T05:19:37.811Z,70.56
2018-08-06T05:20:45.908Z,71.14
2018-08-06T05:21:53.961Z,70.37
2018-08-06T05:23:02.273Z,69.89
2018-08-06T05:24:10.307Z,70.47
2018-08-06T05:25:18.437Z,70.66
2018-08-06T05:26:26.456Z,70.47
2018-08-06T05:27:34.546Z,70.18
2018-08-06T05:28:42.691Z,69.89
2018-08-06T05:29:53.925Z,69.89
2018-08-06T05:30:58.737Z,69.31
2018-08-06T05:32:06.809Z,69.45
2018-08-06T05:33:15.169Z,69.64
2018-08-06T05:34:22.976Z,69.54
2018-08-06T05:35:31.018Z,69.06
2018-08-06T05:36:39.093Z,69.15
2018-08-06T05:37:47.184Z,68.96
2018-08-06T05:38:55.225Z,68.99
2018-08-06T05:40:04.834Z,68.52
2018-08-06T05:41:11.383Z,68.99
2018-08-06T05:42:19.605Z,69.29
2018-08-06T05:43:27.536Z,68.52
2018-08-06T05:44:37.100Z,68.71
2018-08-06T05:45:43.684Z,69.48
2018-08-06T05:46:51.786Z,68.99
2018-08-06T05:47:59.845Z,68.61
2018-08-06T05:49:07.927Z,67.74
2018-08-06T05:50:15.942Z,67.84
2018-08-06T05:51:24.057Z,68.26
2018-08-06T05:52:32.121Z,68.45
2018-08-06T05:53:40.217Z,67.88
2018-08-06T05:54:48.330Z,66.72
2018-08-06T05:55:56.341Z,68.55
2018-08-06T05:57:04.408Z,68.16
2018-08-06T05:58:12.505Z,68.84
2018-08-06T05:59:20.556Z,67.10
2018-08-06T06:00:28.737Z,66.72
2018-08-06T06:01:36.703Z,67.00
2018-08-06T06:02:44.788Z,67.49
2018-08-06T06:03:52.852Z,67.20
2018-08-06T06:05:00.912Z,67.58
2018-08-06T06:06:08.987Z,67.20
2018-08-06T06:07:17.076Z,67.49
2018-08-06T06:08:26.625Z,68.16
2018-08-06T06:09:33.214Z,67.97
2018-08-06T06:10:42.780Z,67.78
2018-08-06T06:11:49.690Z,67.97
2018-08-06T06:12:58.850Z,68.74
2018-08-06T06:14:05.550Z,67.78
2018-08-06T06:15:13.612Z,67.68
2018-08-06T06:16:21.743Z,68.01
2018-08-06T06:17:29.761Z,67.33
2018-08-06T06:18:37.817Z,67.71
2018-08-06T06:19:45.888Z,67.33
2018-08-06T06:20:55.027Z,67.71
2018-08-06T06:22:02.375Z,67.52
2018-08-06T06:23:10.116Z,66.27
2018-08-06T06:24:18.199Z,67.23
2018-08-06T06:25:26.260Z,66.69
2018-08-06T06:26:34.706Z,66.69
2018-08-06T06:27:42.414Z,66.97
2018-08-06T06:28:50.602Z,66.88
2018-08-06T06:29:58.575Z,66.59
2018-08-06T06:31:06.719Z,66.20
2018-08-06T06:32:14.982Z,66.30
2018-08-06T06:33:22.782Z,66.40
2018-08-06T06:34:31.040Z,66.49
2018-08-06T06:35:38.934Z,66.20
2018-08-06T06:36:47.019Z,66.59
2018-08-06T06:37:55.174Z,66.40
2018-08-06T06:39:03.161Z,66.97
2018-08-06T06:40:11.258Z,65.85
2018-08-06T06:41:19.320Z,66.11
2018-08-06T06:42:27.539Z,66.33
2018-08-06T06:43:35.448Z,66.82
2018-08-06T06:44:43.555Z,66.82
2018-08-06T06:45:51.616Z,66.91
2018-08-06T06:46:59.700Z,67.59
2018-08-06T06:48:07.762Z,66.72
2018-08-06T06:49:15.904Z,67.01
2018-08-06T06:50:23.899Z,66.27
2018-08-06T06:51:31.987Z,65.20
2018-08-06T06:52:40.061Z,65.85
2018-08-06T06:53:48.167Z,65.59
2018-08-06T06:54:56.180Z,65.78
2018-08-06T06:56:04.306Z,66.17
2018-08-06T06:57:12.362Z,65.50
2018-08-06T06:58:20.639Z,66.08
2018-08-06T06:59:28.757Z,65.11
2018-08-06T07:00:36.792Z,65.59
2018-08-06T07:01:44.865Z,65.78
2018-08-06T07:02:53.044Z,65.78
2018-08-06T07:04:01.365Z,65.78
2018-08-06T07:05:09.086Z,65.88
2018-08-06T07:06:17.469Z,66.50
2018-08-06T07:07:25.222Z,64.66
2018-08-06T07:08:33.314Z,64.85
2018-08-06T07:09:41.645Z,64.98
2018-08-06T07:10:49.452Z,65.56
2018-08-06T07:11:57.579Z,64.79
2018-08-06T07:13:05.593Z,63.14
2018-08-06T07:14:13.852Z,63.24
2018-08-06T07:15:21.797Z,63.76
2018-08-06T07:16:29.839Z,65.40
2018-08-06T07:17:37.984Z,64.82
2018-08-06T07:18:45.975Z,62.69
2018-08-06T07:19:55.737Z,63.31
2018-08-06T07:21:04.983Z,64.07
2018-08-06T07:22:13.043Z,61.66
2018-08-06T07:23:21.402Z,61.11
2018-08-06T07:24:29.167Z,61.01
2018-08-06T07:25:40.662Z,60.17
2018-08-06T07:26:45.297Z,58.62
2018-08-06T07:27:53.389Z,58.84
2018-08-06T07:29:01.458Z,57.51
2018-08-06T07:30:09.558Z,57.12
2018-08-06T07:31:17.620Z,56.57
2018-08-06T07:32:29.066Z,56.21
2018-08-06T07:33:33.791Z,55.39
2018-08-06T07:34:41.845Z,52.98
2018-08-06T07:35:49.968Z,51.17
2018-08-06T07:36:58.039Z,50.99
2018-08-06T07:38:06.072Z,51.51
2018-08-06T07:39:14.361Z,50.75
2018-08-06T07:40:22.361Z,49.78
2018-08-06T07:41:30.316Z,47.95
2018-08-06T07:42:38.419Z,49.02
2018-08-06T07:43:49.898Z,48.05
2018-08-06T07:44:54.548Z,48.07
2018-08-06T07:46:02.628Z,47.97
2018-08-06T07:47:10.801Z,46.75
2018-08-06T07:48:18.871Z,45.48
2018-08-06T07:49:26.967Z,45.48
2018-08-06T07:50:35.317Z,45.12
2018-08-06T07:51:43.009Z,45.21
2018-08-06T07:52:51.103Z,45.70
2018-08-06T07:53:59.217Z,46.70
2018-08-06T07:55:07.265Z,46.70
2018-08-06T07:56:15.349Z,44.35
2018-08-06T07:57:27.557Z,44.94
2018-08-06T07:59:47.106Z,43.99
2018-08-06T08:00:55.140Z,44.28
2018-08-06T08:02:03.222Z,44.26
2018-08-06T08:03:11.359Z,44.35
2018-08-06T08:04:19.385Z,44.94
2018-08-06T08:05:29.961Z,45.82
2018-08-06T08:06:37.771Z,45.75
2018-08-06T08:07:45.818Z,45.84
2018-08-06T08:08:54.081Z,45.84
2018-08-06T08:10:02.708Z,45.06
2018-08-06T08:11:10.444Z,44.01
2018-08-06T08:12:18.207Z,44.30
2018-08-06T08:13:26.263Z,44.69
2018-08-06T08:14:35.609Z,44.32
2018-08-06T08:15:42.517Z,43.84
2018-08-06T08:16:52.024Z,44.23
2018-08-06T08:17:58.810Z,42.64
2018-08-06T08:19:06.803Z,43.62
2018-08-06T08:20:14.991Z,43.54
2018-08-06T08:21:22.876Z,43.15
2018-08-06T08:22:32.252Z,43.05
2018-08-06T08:23:39.061Z,42.07
2018-08-06T08:24:47.102Z,43.62
2018-08-06T08:25:55.198Z,44.30
2018-08-06T08:27:03.649Z,44.89
2018-08-06T08:28:11.402Z,42.93
2018-08-06T08:29:19.602Z,43.24
2018-08-06T08:30:27.527Z,43.54
2018-08-06T08:31:35.603Z,44.42
2018-08-06T08:32:44.779Z,43.54
2018-08-06T08:33:51.801Z,44.30
2018-08-06T08:34:59.877Z,45.40
2018-08-06T08:36:07.962Z,45.57
2018-08-06T08:37:16.023Z,45.18
2018-08-06T08:38:24.134Z,44.10
2018-08-06T08:39:32.233Z,42.76
2018-08-06T08:40:42.943Z,44.52
2018-08-06T08:41:48.380Z,45.59
2018-08-06T08:42:56.477Z,44.44
2018-08-06T08:44:04.556Z,44.27
2018-08-06T08:45:12.663Z,43.48
2018-08-06T08:46:20.926Z,44.19
2018-08-06T08:47:29.046Z,43.21
2018-08-06T08:48:37.193Z,43.09
2018-08-06T08:49:45.329Z,41.94
2018-08-06T08:50:53.258Z,42.02
2018-08-06T08:52:01.361Z,45.05
2018-08-06T08:53:09.732Z,44.68
2018-08-06T08:54:17.535Z,42.60
2018-08-06T08:55:25.577Z,43.21
2018-08-06T08:56:35.548Z,42.31
2018-08-06T08:57:41.790Z,43.27
2018-08-06T08:58:50.250Z,44.46
2018-08-06T08:59:58.139Z,45.34
2018-08-06T09:01:06.244Z,46.50
2018-08-06T09:02:14.319Z,44.05
2018-08-06T09:03:22.408Z,45.52
2018-08-06T09:04:30.483Z,45.23
2018-08-06T09:05:39.992Z,46.89
2018-08-06T09:06:46.646Z,46.77
2018-08-06T09:07:56.169Z,45.20
2018-08-06T09:09:02.947Z,45.59
2018-08-06T09:10:10.938Z,45.79
2018-08-06T09:11:18.993Z,46.89
2018-08-06T09:12:27.181Z,47.16
2018-08-06T09:13:35.151Z,46.18
2018-08-06T09:14:43.277Z,43.63
2018-08-06T09:15:51.334Z,44.91
2018-08-06T09:16:59.422Z,45.45
2018-08-06T09:18:07.497Z,44.09
2018-08-06T09:19:15.566Z,48.26
2018-08-06T09:20:23.662Z,48.07
2018-08-06T09:21:31.762Z,47.66
2018-08-06T09:22:41.867Z,48.05
2018-08-06T09:23:48.607Z,45.80
2018-08-06T09:24:56.687Z,46.75
2018-08-06T09:26:04.683Z,47.73
2018-08-06T09:27:13.119Z,48.68
2018-08-06T09:28:20.875Z,48.39
2018-08-06T09:29:28.940Z,48.88
2018-08-06T09:30:37.047Z,46.83
2018-08-06T09:31:45.077Z,46.92
2018-08-06T09:32:54.233Z,47.97
2018-08-06T09:34:01.371Z,49.41
2018-08-06T09:35:09.364Z,51.85
2018-08-06T09:36:17.718Z,50.97
2018-08-06T09:37:25.699Z,52.44
2018-08-06T09:38:33.794Z,48.63
2018-08-06T09:39:41.945Z,49.12
2018-08-06T09:40:49.958Z,50.97
2018-08-06T09:41:58.016Z,48.44
2018-08-06T09:43:06.085Z,49.51
2018-08-06T09:44:14.187Z,49.15
2018-08-06T09:45:22.504Z,48.66
2018-08-06T09:46:30.549Z,51.97
2018-08-06T09:47:40.033Z,50.90
2018-08-06T09:48:46.715Z,45.07
2018-08-06T09:49:56.295Z,48.07
2018-08-06T09:51:03.021Z,47.71
2018-08-06T09:52:18.206Z,48.00
2018-08-06T09:53:21.460Z,46.73
2018-08-06T09:54:29.525Z,47.80
2018-08-06T09:55:37.794Z,45.07
2018-08-06T09:56:45.840Z,45.75
2018-08-06T09:57:53.959Z,45.46
2018-08-06T09:59:02.025Z,44.97
2018-08-06T10:00:10.093Z,45.48
2018-08-06T10:01:18.447Z,44.51
2018-08-06T10:02:26.263Z,45.75
2018-08-06T10:03:34.360Z,45.75
2018-08-06T10:04:42.415Z,44.29
2018-08-06T10:05:50.702Z,46.63
2018-08-06T10:06:58.590Z,46.83
2018-08-06T10:08:06.678Z,46.95
2018-08-06T10:09:14.832Z,43.14
2018-08-06T10:10:22.819Z,44.02
2018-08-06T10:11:30.906Z,44.24
2018-08-06T10:12:38.982Z,43.65
2018-08-06T10:13:47.058Z,42.09
2018-08-06T10:14:55.134Z,42.75
2018-08-06T10:16:03.220Z,46.14
2018-08-06T10:17:11.302Z,45.65
2018-08-06T10:18:20.785Z,45.87
2018-08-06T10:19:27.498Z,42.65
2018-08-06T10:20:35.542Z,43.55
2018-08-06T10:21:43.618Z,46.00
2018-08-06T10:22:53.176Z,45.31
2018-08-06T10:23:59.781Z,43.18
2018-08-06T10:25:07.886Z,46.11
2018-08-06T10:26:15.927Z,44.74
2018-08-06T10:27:24.037Z,44.26
2018-08-06T10:28:32.086Z,45.43
2018-08-06T10:29:40.198Z,42.32
2018-08-06T10:30:48.261Z,43.59
2018-08-06T10:31:56.367Z,44.18
2018-08-06T10:33:04.577Z,44.18
2018-08-06T10:34:12.518Z,44.09
2018-08-06T10:35:20.571Z,45.84
2018-08-06T10:36:28.651Z,45.26
2018-08-06T10:37:36.741Z,46.72
2018-08-06T10:38:44.821Z,45.37
2018-08-06T10:39:52.908Z,43.89
2018-08-06T10:41:00.969Z,43.89
2018-08-06T10:42:11.004Z,45.26
2018-08-06T10:43:17.151Z,45.36
2018-08-06T10:44:28.783Z,44.18
2018-08-06T10:45:33.610Z,44.38
2018-08-06T10:46:41.585Z,43.69
2018-08-06T10:47:49.654Z,44.57
2018-08-06T10:48:57.961Z,44.09
2018-08-06T10:50:06.000Z,40.76
2018-08-06T10:51:14.132Z,42.13
2018-08-06T10:52:22.439Z,42.22
2018-08-06T10:53:30.274Z,39.10
2018-08-06T10:54:38.345Z,41.25
2018-08-06T10:55:46.431Z,40.37
2018-08-06T10:56:54.580Z,41.83
2018-08-06T10:58:02.585Z,42.52
2018-08-06T10:59:10.648Z,43.03
2018-08-06T11:00:18.874Z,40.48
2018-08-06T11:01:26.823Z,38.82
2018-08-06T11:02:38.322Z,41.36
2018-08-06T11:03:43.582Z,41.46
2018-08-06T11:04:54.907Z,41.36
2018-08-06T11:05:59.148Z,42.35
2018-08-06T11:07:07.238Z,39.02
2018-08-06T11:08:15.287Z,40.47
2018-08-06T11:09:23.693Z,40.08
2018-08-06T11:10:31.457Z,41.35
2018-08-06T11:11:39.744Z,43.49
2018-08-06T11:12:47.816Z,44.49
2018-08-06T11:13:56.145Z,40.78
2018-08-06T11:15:04.081Z,41.88
2018-08-06T11:16:12.062Z,43.15
2018-08-06T11:17:20.189Z,40.60
2018-08-06T11:18:28.238Z,41.02
2018-08-06T11:19:36.649Z,40.43
2018-08-06T11:20:44.438Z,40.53
2018-08-06T11:21:52.460Z,40.23
2018-08-06T11:23:00.546Z,41.11
2018-08-06T11:24:08.613Z,40.92
2018-08-06T11:25:16.747Z,40.23
2018-08-06T11:26:24.799Z,38.96
2018-08-06T11:27:32.857Z,38.57
2018-08-06T11:28:40.951Z,36.71
2018-08-06T11:29:49.023Z,38.47
2018-08-06T11:30:57.114Z,37.98
2018-08-06T11:32:05.164Z,39.35
2018-08-06T11:33:13.648Z,37.98
2018-08-06T11:34:21.545Z,40.23
2018-08-06T11:35:29.889Z,37.79
2018-08-06T11:36:37.803Z,39.06
2018-08-06T11:37:45.771Z,39.45
2018-08-06T11:38:53.853Z,39.15
2018-08-06T11:40:02.157Z,40.23
2018-08-06T11:41:10.235Z,38.67
2018-08-06T11:42:18.315Z,39.07
2018-08-06T11:43:26.752Z,39.84
2018-08-06T11:44:34.524Z,40.16
2018-08-06T11:45:42.920Z,39.96
2018-08-06T11:46:50.644Z,39.56
2018-08-06T11:47:59.943Z,39.47
2018-08-06T11:49:06.791Z,40.06
2018-08-06T11:50:14.930Z,40.25
2018-08-06T11:51:22.959Z,40.35
2018-08-06T11:52:31.076Z,39.66
2018-08-06T11:53:40.204Z,37.61
2018-08-06T11:54:47.333Z,39.47
2018-08-06T11:55:55.352Z,38.88
2018-08-06T11:57:03.426Z,40.35
2018-08-06T11:58:11.433Z,39.29
2018-08-06T11:59:19.548Z,37.23
2018-08-06T12:00:27.604Z,36.25
2018-08-06T12:01:35.659Z,39.29
2018-08-06T12:02:43.761Z,39.00
2018-08-06T12:03:54.364Z,38.80
2018-08-06T12:05:00.123Z,37.13
2018-08-06T12:06:08.221Z,35.37
2018-08-06T12:07:16.270Z,36.35
2018-08-06T12:08:24.384Z,38.88
2018-08-06T12:09:32.455Z,39.09
2018-08-06T12:10:40.575Z,39.00
2018-08-06T12:11:48.668Z,40.37
2018-08-06T12:12:56.968Z,41.05
2018-08-06T12:14:04.773Z,38.90
2018-08-06T12:15:12.911Z,37.35
2018-08-06T12:16:20.941Z,41.76
2018-08-06T12:17:29.067Z,36.66
2018-08-06T12:18:37.352Z,38.92
2018-08-06T12:19:45.210Z,37.84
2018-08-06T12:20:53.766Z,36.27
2018-08-06T12:22:01.339Z,36.57
2018-08-06T12:23:09.421Z,38.92
2018-08-06T12:24:17.492Z,39.31
2018-08-06T12:25:29.001Z,39.01
2018-08-06T12:26:34.022Z,38.23
2018-08-06T12:27:41.769Z,37.45
2018-08-06T12:28:49.870Z,40.66
2018-08-06T12:29:57.934Z,40.39
2018-08-06T12:31:05.952Z,38.53
2018-08-06T12:32:14.072Z,37.25
2018-08-06T12:33:22.149Z,36.76
2018-08-06T12:34:30.336Z,38.13
2018-08-06T12:35:38.288Z,39.78
2018-08-06T12:36:46.406Z,37.25
2018-08-06T12:37:54.954Z,36.55
2018-08-06T12:39:02.740Z,39.49
2018-08-06T12:40:10.799Z,40.27
2018-08-06T12:41:18.905Z,37.82
2018-08-06T12:42:27.027Z,37.52
2018-08-06T12:43:35.063Z,40.09
2018-08-06T12:44:43.454Z,38.41
2018-08-06T12:45:51.224Z,40.47
2018-08-06T12:47:00.750Z,39.49
2018-08-06T12:48:07.645Z,38.90
2018-08-06T12:49:15.477Z,40.19
2018-08-06T12:50:23.554Z,36.35
2018-08-06T12:51:31.639Z,35.76
2018-08-06T12:52:39.976Z,35.78
2018-08-06T12:53:48.689Z,34.80
2018-08-06T12:54:55.848Z,36.47
2018-08-06T12:56:07.336Z,36.94
2018-08-06T12:57:12.062Z,38.70
2018-08-06T12:58:21.540Z,37.84
2018-08-06T12:59:28.265Z,37.65
2018-08-06T13:00:36.275Z,39.70
2018-08-06T13:01:44.481Z,38.53
2018-08-06T13:02:53.877Z,35.68
2018-08-06T13:04:00.879Z,36.66
2018-08-06T13:05:08.718Z,36.45
2018-08-06T13:06:16.722Z,39.59
2018-08-06T13:07:24.771Z,38.80
2018-08-06T13:08:32.846Z,39.00
2018-08-06T13:09:40.946Z,39.11
2018-08-06T13:10:48.988Z,36.86
2018-08-06T13:11:57.095Z,37.65
2018-08-06T13:13:05.137Z,37.65
2018-08-06T13:14:13.259Z,36.66
2018-08-06T13:15:21.392Z,39.01
2018-08-06T13:16:29.403Z,40.29
2018-08-06T13:17:37.475Z,39.22
2018-08-06T13:18:45.528Z,39.61
2018-08-06T13:19:53.636Z,40.98
2018-08-06T13:21:01.702Z,36.66
2018-08-06T13:22:13.239Z,37.33
2018-08-06T13:23:17.865Z,35.57
2018-08-06T13:24:27.426Z,35.75
2018-08-06T13:25:34.047Z,38.10
2018-08-06T13:26:42.153Z,38.49
2018-08-06T13:27:50.205Z,40.45
2018-08-06T13:28:58.291Z,39.07
2018-08-06T13:30:06.441Z,36.72
2018-08-06T13:31:14.479Z,34.28
2018-08-06T13:32:22.834Z,34.28
2018-08-06T13:33:30.621Z,36.04
2018-08-06T13:34:38.688Z,37.41
2018-08-06T13:35:47.029Z,37.90
2018-08-06T13:36:54.914Z,38.00
2018-08-06T13:38:02.923Z,36.63
2018-08-06T13:39:10.995Z,36.82
2018-08-06T13:40:19.161Z,37.21
2018-08-06T13:41:27.166Z,37.21
2018-08-06T13:42:35.235Z,36.72
2018-08-06T13:43:43.318Z,35.16
2018-08-06T13:44:51.392Z,35.75
2018-08-06T13:46:00.941Z,38.98
2018-08-06T13:47:07.584Z,39.47
2018-08-06T13:48:15.651Z,37.31
2018-08-06T13:49:23.715Z,38.59
2018-08-06T13:50:31.833Z,36.33
2018-08-06T13:51:39.879Z,38.78
2018-08-06T13:52:47.977Z,38.29
2018-08-06T13:53:56.025Z,37.51
2018-08-06T13:55:04.136Z,37.21
2018-08-06T13:56:12.292Z,36.72
2018-08-06T13:57:20.671Z,36.12
2018-08-06T13:58:28.735Z,36.61
2018-08-06T13:59:36.786Z,36.80
2018-08-06T14:00:44.681Z,37.49
2018-08-06T14:01:52.605Z,38.08
2018-08-06T14:03:00.676Z,36.61
2018-08-06T14:04:08.776Z,36.80
2018-08-06T14:05:17.070Z,36.61
2018-08-06T14:06:25.748Z,37.69
2018-08-06T14:07:33.199Z,37.49
2018-08-06T14:08:41.291Z,37.29
2018-08-06T14:09:49.371Z,37.88
2018-08-06T14:10:57.446Z,38.37
2018-08-06T14:12:05.507Z,39.15
2018-08-06T14:13:13.605Z,37.88
2018-08-06T14:14:21.695Z,37.29
2018-08-06T14:15:29.770Z,35.35
2018-08-06T14:16:37.887Z,37.39
2018-08-06T14:17:45.916Z,38.76
2018-08-06T14:18:54.020Z,37.19
2018-08-06T14:20:02.082Z,37.19
2018-08-06T14:21:10.397Z,37.12
2018-08-06T14:22:18.246Z,36.61
2018-08-06T14:23:26.359Z,38.86
2018-08-06T14:24:34.397Z,39.94
2018-08-06T14:25:42.496Z,38.84
2018-08-06T14:26:50.564Z,39.14
2018-08-06T14:27:58.664Z,38.75
2018-08-06T14:29:06.704Z,37.67
2018-08-06T14:30:14.826Z,38.73
2018-08-06T14:31:23.186Z,38.82
2018-08-06T14:32:30.967Z,38.73
2018-08-06T14:33:39.059Z,36.98
2018-08-06T14:34:47.334Z,37.57
2018-08-06T14:35:55.385Z,36.67
2018-08-06T14:37:03.477Z,36.67
2018-08-06T14:38:11.558Z,38.14
2018-08-06T14:39:19.650Z,39.12